Time;durP1;ratioP1;P1;durP2;ratioP2;P2;SDS_P1;SDS_P2;PMS_P1;PMS_P2;Temp;Humidity;BMP_temperature;BMP_pressure;BME280_temperature;BME280_humidity;BME280_pressure;Samples;Min_cycle;Max_cycle;Signal;HPM_P1;HPM_P2
2022/07/21 00:01:36;;;;;;;17.00;6.50;;;;;;;15.99;76.33;98917.89;25102;1313;3026987;-69
2022/07/21 00:04:05;;;;;;;16.40;7.70;;;;;;;16.14;74.88;98924.32;25066;1313;3026514;-67
2022/07/21 00:06:34;;;;;;;15.60;7.10;;;;;;;15.92;75.42;98920.98;25093;1313;3055155;-71
2022/07/21 00:09:03;;;;;;;12.30;5.20;;;;;;;15.62;77.09;98925.50;25101;1313;3026902;-63
2022/07/21 00:11:32;;;;;;;11.90;5.00;;;;;;;15.32;78.51;98928.11;25089;1313;3052243;-68
2022/07/21 00:14:06;;;;;;;8.70;3.70;;;;;;;15.27;78.48;98931.08;25156;1313;3029172;-71
2022/07/21 00:16:36;;;;;;;7.50;3.70;;;;;;;15.57;77.50;98926.05;25105;1313;3026936;-66
2022/07/21 00:19:06;;;;;;;7.30;2.90;;;;;;;15.70;76.03;98930.80;25120;1313;3027036;-65
2022/07/21 00:21:35;;;;;;;6.80;3.00;;;;;;;15.56;76.18;98935.23;25110;1313;3027071;-65
2022/07/21 00:24:05;;;;;;;5.30;3.20;;;;;;;15.54;75.98;98938.20;25120;1313;3026962;-67
2022/07/21 00:26:34;;;;;;;7.60;3.10;;;;;;;15.34;76.33;98937.70;25147;1313;3026866;-66
2022/07/21 00:29:03;;;;;;;6.00;2.60;;;;;;;15.26;76.67;98935.02;25123;1313;3026180;-62
2022/07/21 00:31:33;;;;;;;4.50;2.40;;;;;;;15.78;74.90;98930.54;25151;1313;3028867;-68
2022/07/21 00:34:02;;;;;;;8.20;3.50;;;;;;;16.11;73.09;98938.16;25103;1313;3053695;-67
2022/07/21 00:36:31;;;;;;;8.30;2.90;;;;;;;15.95;72.92;98935.78;25064;1313;3026465;-65
2022/07/21 00:39:00;;;;;;;6.20;3.40;;;;;;;15.74;73.26;98937.24;25140;1313;3054077;-68
2022/07/21 00:41:29;;;;;;;7.10;3.40;;;;;;;15.57;73.42;98931.70;25111;1313;3026548;-69
2022/07/21 00:43:58;;;;;;;9.00;3.80;;;;;;;15.42;74.04;98934.14;25084;1313;3026473;-63
2022/07/21 00:46:31;;;;;;;8.20;4.10;;;;;;;15.38;74.38;98926.89;25068;1313;3055217;-68
2022/07/21 00:49:00;;;;;;;11.30;4.40;;;;;;;15.79;73.77;98930.27;25108;1313;3026925;-64
2022/07/21 00:51:29;;;;;;;11.60;4.50;;;;;;;16.08;72.46;98924.50;25092;1313;3050646;-67
2022/07/21 00:53:59;;;;;;;7.50;4.50;;;;;;;16.16;72.15;98919.50;25043;1312;3026552;-67
2022/07/21 00:56:28;;;;;;;7.90;4.50;;;;;;;16.00;72.05;98920.83;25064;1313;3028181;-63
2022/07/21 00:58:58;;;;;;;10.10;5.00;;;;;;;15.70;72.90;98921.73;25065;1313;3026776;-70
2022/07/21 01:01:28;;;;;;;10.40;5.10;;;;;;;15.51;73.65;98919.23;25115;1313;3025792;-61
2022/07/21 01:03:57;;;;;;;10.90;3.60;;;;;;;15.34;74.56;98919.67;25150;1314;3054200;-65
2022/07/21 01:06:31;;;;;;;6.40;4.00;;;;;;;15.74;73.64;98925.63;25203;1313;3059347;-66
2022/07/21 01:09:01;;;;;;;9.40;4.60;;;;;;;16.14;72.19;98917.80;25187;1313;3026530;-65
2022/07/21 01:11:30;;;;;;;20.60;9.50;;;;;;;16.05;71.75;98922.70;25215;1313;3026338;-62
2022/07/21 01:13:59;;;;;;;25.10;10.10;;;;;;;15.77;72.33;98926.63;25109;1313;3057905;-65
2022/07/21 01:16:28;;;;;;;22.30;10.10;;;;;;;15.66;72.60;98921.92;25247;1316;3027925;-68
2022/07/21 01:18:57;;;;;;;23.70;9.00;;;;;;;15.44;73.39;98922.70;25166;1315;3054350;-62
2022/07/21 01:21:35;;;;;;;14.90;6.30;;;;;;;15.27;74.12;98923.34;25224;1313;3026553;-67
2022/07/21 01:24:04;;;;;;;15.90;6.40;;;;;;;15.72;73.20;98919.96;25133;1313;3051428;-67
2022/07/21 01:26:47;;;;;;;26.30;10.60;;;;;;;15.92;71.74;98925.80;25131;1313;3028549;-68
2022/07/21 01:29:18;;;;;;;22.00;10.30;;;;;;;15.92;71.29;98923.83;25102;1313;3059406;-69
2022/07/21 01:31:47;;;;;;;26.80;10.80;;;;;;;15.61;72.11;98923.23;25062;1312;3029419;-66
2022/07/21 01:34:18;;;;;;;32.50;11.70;;;;;;;15.42;72.84;98919.66;25069;1313;3054829;-66
2022/07/21 01:36:47;;;;;;;21.50;9.20;;;;;;;15.17;73.76;98919.59;25051;1313;3026325;-66
2022/07/21 01:42:04;;;;;;;17.00;7.50;;;;;;;15.62;72.96;98918.73;25117;1313;3054844;-66
2022/07/21 01:44:33;;;;;;;24.20;9.90;;;;;;;15.91;71.50;98922.54;25083;1313;3026250;-68
2022/07/21 01:47:02;;;;;;;20.30;8.30;;;;;;;15.79;71.48;98922.40;25122;1313;3026421;-63
2022/07/21 01:49:31;;;;;;;20.60;7.80;;;;;;;15.43;72.56;98918.36;25117;1313;3054951;-66
2022/07/21 01:52:01;;;;;;;16.10;7.10;;;;;;;15.33;72.90;98914.31;25070;1313;3026545;-65
2022/07/21 01:54:31;;;;;;;19.70;7.40;;;;;;;15.19;73.21;98916.36;25086;1316;3030272;-68
2022/07/21 01:57:00;;;;;;;14.10;5.30;;;;;;;15.12;74.01;98918.77;25119;1313;3029816;-67
2022/07/21 01:59:29;;;;;;;14.20;6.00;;;;;;;15.41;73.15;98913.80;25103;1313;3029759;-63
2022/07/21 02:01:58;;;;;;;17.20;7.30;;;;;;;15.64;72.10;98910.94;25113;1313;3052014;-68
2022/07/21 02:04:28;;;;;;;27.30;9.70;;;;;;;15.77;71.68;98909.52;25097;1313;3027946;-70
2022/07/21 02:06:58;;;;;;;21.40;9.90;;;;;;;15.65;71.62;98909.46;25155;1313;3028878;-67
2022/07/21 02:09:30;;;;;;;20.30;10.40;;;;;;;15.44;72.33;98908.96;25130;1313;3029945;-64
2022/07/21 02:11:59;;;;;;;27.70;12.30;;;;;;;15.20;73.05;98909.09;25118;1313;3026651;-66
2022/07/21 02:14:28;;;;;;;22.00;9.40;;;;;;;14.92;74.35;98905.02;25099;1313;3053928;-65
2022/07/21 02:16:58;;;;;;;18.30;7.80;;;;;;;15.40;73.38;98902.40;25113;1313;3027312;-68
2022/07/21 02:19:27;;;;;;;15.40;7.90;;;;;;;15.68;71.92;98906.57;25105;1313;3026426;-68
2022/07/21 02:21:56;;;;;;;12.40;6.80;;;;;;;15.59;71.64;98908.97;25134;1312;3053408;-66
2022/07/21 02:24:25;;;;;;;12.20;6.90;;;;;;;15.43;72.19;98905.77;25083;1313;3026513;-67
2022/07/21 02:26:54;;;;;;;9.40;5.90;;;;;;;15.17;72.95;98912.55;25111;1313;3054974;-65
2022/07/21 02:29:23;;;;;;;12.20;6.20;;;;;;;15.04;73.70;98911.20;25142;1313;3026567;-66
2022/07/21 02:31:53;;;;;;;9.30;4.20;;;;;;;14.93;74.34;98916.39;25111;1313;3051855;-63
2022/07/21 02:34:22;;;;;;;12.40;6.90;;;;;;;15.25;73.63;98913.97;25174;1313;3028488;-64
2022/07/21 02:36:51;;;;;;;14.60;7.80;;;;;;;15.44;72.56;98911.50;25187;1313;3026332;-67
2022/07/21 02:39:21;;;;;;;13.80;8.30;;;;;;;15.42;72.20;98922.17;25183;1313;3028354;-62
2022/07/21 02:41:50;;;;;;;14.80;8.10;;;;;;;15.24;72.68;98920.02;25207;1313;3026755;-62
2022/07/21 02:44:19;;;;;;;17.10;8.50;;;;;;;15.05;73.48;98919.77;25197;1313;3051899;-67
2022/07/21 02:46:48;;;;;;;14.10;8.20;;;;;;;14.82;74.50;98918.23;25211;1313;3026327;-68
2022/07/21 02:49:17;;;;;;;15.30;6.80;;;;;;;14.87;74.54;98918.13;25207;1312;3026906;-68
2022/07/21 02:51:47;;;;;;;13.80;6.40;;;;;;;15.35;73.19;98921.55;25119;1313;3026401;-66
2022/07/21 02:54:18;;;;;;;12.90;6.60;;;;;;;15.61;71.94;98919.87;25157;1313;3069107;-66
2022/07/21 02:56:48;;;;;;;11.20;6.20;;;;;;;15.57;72.00;98924.34;25188;1313;3025969;-73
2022/07/21 02:59:17;;;;;;;13.10;6.30;;;;;;;15.39;72.06;98920.48;25107;1312;3026611;-68
2022/07/21 03:01:47;;;;;;;12.70;7.30;;;;;;;15.24;72.79;98920.95;25108;1312;3070663;-67
2022/07/21 03:04:16;;;;;;;10.90;6.90;;;;;;;14.96;73.90;98926.38;25179;1313;3029346;-62
2022/07/21 03:06:45;;;;;;;10.00;4.80;;;;;;;14.84;75.03;98931.98;25138;1313;3026936;-68
2022/07/21 03:09:14;;;;;;;12.70;6.50;;;;;;;15.40;73.35;98930.98;25128;1313;3070897;-69
2022/07/21 03:11:44;;;;;;;16.50;6.00;;;;;;;15.53;72.42;98932.27;25142;1313;3027158;-68
2022/07/21 03:14:15;;;;;;;10.80;5.30;;;;;;;15.46;72.41;98929.95;25136;1312;3030118;-64
2022/07/21 03:16:44;;;;;;;11.90;4.70;;;;;;;15.17;73.43;98928.58;25093;1312;3026911;-66
2022/07/21 03:19:15;;;;;;;9.70;4.70;;;;;;;15.18;73.12;98924.98;25132;1312;3051770;-66
2022/07/21 03:21:44;;;;;;;8.20;4.00;;;;;;;15.01;73.39;98922.73;25111;1313;3026497;-62
2022/07/21 03:24:15;;;;;;;5.00;2.30;;;;;;;14.96;73.47;98925.99;25110;1313;3069895;-66
2022/07/21 03:26:44;;;;;;;14.80;3.20;;;;;;;15.29;72.80;98923.98;25176;1313;3026466;-68
2022/07/21 03:29:14;;;;;;;8.00;3.70;;;;;;;15.59;71.80;98919.70;25152;1313;3027224;-64
2022/07/21 03:31:44;;;;;;;8.10;4.10;;;;;;;15.38;72.17;98927.97;25154;1313;3026095;-65
2022/07/21 03:34:13;;;;;;;11.40;4.80;;;;;;;15.23;72.60;98925.09;25086;1312;3026615;-63
2022/07/21 03:36:42;;;;;;;16.90;6.20;;;;;;;15.17;73.03;98922.80;25131;1312;3026353;-69
2022/07/21 03:39:11;;;;;;;10.10;5.90;;;;;;;15.05;73.67;98919.01;25135;1313;3054340;-71
2022/07/21 03:41:40;;;;;;;10.40;4.40;;;;;;;14.97;74.62;98926.08;25286;1313;3026259;-66
2022/07/21 03:44:10;;;;;;;12.70;5.30;;;;;;;15.48;72.80;98922.98;25204;1312;3054992;-65
2022/07/21 03:46:40;;;;;;;12.00;5.30;;;;;;;15.89;71.13;98921.82;25204;1312;3026668;-63
2022/07/21 03:49:09;;;;;;;11.60;5.30;;;;;;;15.78;71.36;98923.86;25183;1313;3027417;-70
2022/07/21 03:51:38;;;;;;;7.20;5.00;;;;;;;15.63;71.69;98920.62;25183;1313;3054629;-66
2022/07/21 03:54:08;;;;;;;10.10;4.90;;;;;;;15.38;72.39;98919.48;25193;1313;3026796;-68
2022/07/21 03:56:37;;;;;;;5.70;4.40;;;;;;;15.09;73.42;98915.66;25162;1311;3051674;-64
2022/07/21 03:59:06;;;;;;;6.10;2.90;;;;;;;15.10;73.51;98914.91;25249;1313;3026926;-67
2022/07/21 04:01:35;;;;;;;6.90;3.00;;;;;;;15.65;72.13;98920.92;25072;1313;3070778;-65
2022/07/21 04:04:04;;;;;;;9.40;3.40;;;;;;;15.97;70.27;98928.53;25129;1313;3026674;-67
2022/07/21 04:06:36;;;;;;;10.90;3.80;;;;;;;16.03;69.80;98920.77;25157;1312;3027180;-67
2022/07/21 04:09:05;;;;;;;9.40;3.50;;;;;;;15.74;70.82;98920.70;25134;1313;3026783;-68
2022/07/21 04:11:35;;;;;;;11.10;3.80;;;;;;;15.58;71.44;98918.96;25100;1313;3026766;-63
2022/07/21 04:14:04;;;;;;;11.30;4.50;;;;;;;15.46;72.11;98917.67;25127;1312;3026701;-63
2022/07/21 04:16:34;;;;;;;6.10;3.20;;;;;;;15.26;73.23;98922.00;25150;1313;3054772;-66
2022/07/21 04:19:03;;;;;;;8.50;4.10;;;;;;;15.73;71.99;98916.06;25108;1313;3028182;-66
2022/07/21 04:21:32;;;;;;;14.40;4.60;;;;;;;16.00;70.60;98914.47;25105;1312;3052855;-67
2022/07/21 04:24:02;;;;;;;13.40;4.60;;;;;;;16.03;70.69;98915.44;25161;1313;3026513;-67
2022/07/21 04:26:31;;;;;;;7.70;4.50;;;;;;;15.89;70.93;98919.17;25081;1313;3051271;-64
2022/07/21 04:29:00;;;;;;;13.20;5.00;;;;;;;15.74;71.31;98924.23;25140;1313;3026385;-64
2022/07/21 04:31:29;;;;;;;12.90;5.20;;;;;;;15.76;71.40;98915.20;25154;1313;3070859;-67
2022/07/21 04:33:58;;;;;;;8.00;4.30;;;;;;;15.62;71.92;98914.65;25163;1313;3026562;-68
2022/07/21 04:36:28;;;;;;;13.30;4.50;;;;;;;15.51;72.25;98919.20;25119;1313;3054287;-65
2022/07/21 04:38:56;;;;;;;18.60;4.80;;;;;;;16.08;70.86;98914.24;25082;1313;3026573;-63
2022/07/21 04:41:28;;;;;;;10.10;4.60;;;;;;;16.28;69.92;98915.09;25140;1313;3054573;-66
2022/07/21 04:44:00;;;;;;;17.80;5.10;;;;;;;16.25;69.72;98913.73;25117;1313;3026393;-67
2022/07/21 04:46:29;;;;;;;10.30;5.00;;;;;;;16.01;70.96;98910.65;25237;1312;3051116;-66
2022/07/21 04:48:58;;;;;;;14.80;5.80;;;;;;;15.98;71.21;98910.95;25285;1312;3026812;-64
2022/07/21 04:51:27;;;;;;;15.00;7.10;;;;;;;16.04;71.29;98912.65;25211;1313;3058600;-67
2022/07/21 04:53:56;;;;;;;16.00;5.70;;;;;;;16.10;71.39;98910.89;25112;1313;3026346;-66
2022/07/21 04:56:27;;;;;;;10.90;4.40;;;;;;;16.56;69.57;98909.61;25100;1313;3026849;-64
2022/07/21 04:58:57;;;;;;;11.30;4.70;;;;;;;16.67;68.47;98915.49;25117;1313;3026267;-65
2022/07/21 05:01:27;;;;;;;14.00;5.30;;;;;;;16.75;68.76;98914.06;25050;1313;3052782;-66
2022/07/21 05:03:56;;;;;;;11.10;4.40;;;;;;;16.79;68.57;98909.90;25147;1313;3026665;-70
2022/07/21 05:06:25;;;;;;;5.00;3.30;;;;;;;16.40;69.17;98918.38;25100;1313;3055652;-67
2022/07/21 05:08:55;;;;;;;12.20;3.50;;;;;;;16.41;69.49;98926.95;25086;1313;3026785;-68
2022/07/21 05:11:25;;;;;;;8.10;3.40;;;;;;;16.21;69.73;98925.23;25093;1313;3026261;-68
2022/07/21 05:13:54;;;;;;;10.90;2.70;;;;;;;16.21;70.14;98926.02;25105;1313;3026448;-65
2022/07/21 05:16:23;;;;;;;9.20;2.80;;;;;;;16.53;69.53;98922.45;25109;1313;3026123;-62
2022/07/21 05:18:54;;;;;;;6.70;3.30;;;;;;;16.68;68.47;98928.98;25143;1313;3055080;-70
2022/07/21 05:21:23;;;;;;;11.90;3.20;;;;;;;16.74;68.79;98922.04;25113;1313;3026826;-64
2022/07/21 05:23:53;;;;;;;7.70;3.30;;;;;;;16.71;68.90;98923.95;25135;1313;3053107;-63
2022/07/21 05:26:22;;;;;;;11.40;3.10;;;;;;;16.77;68.88;98920.74;25121;1313;3026687;-68
2022/07/21 05:28:51;;;;;;;5.90;2.80;;;;;;;16.69;69.49;98920.42;25111;1313;3058266;-71
2022/07/21 05:31:20;;;;;;;4.40;2.60;;;;;;;16.62;69.61;98921.13;25114;1313;3026456;-66
2022/07/21 05:33:49;;;;;;;4.00;2.00;;;;;;;16.42;69.47;98919.73;25092;1313;3054496;-64
2022/07/21 05:36:19;;;;;;;3.90;1.90;;;;;;;16.34;70.11;98922.84;25073;1313;3026483;-70
2022/07/21 05:38:49;;;;;;;4.40;1.60;;;;;;;16.80;68.39;98912.83;25087;1313;3026294;-67
2022/07/21 05:41:19;;;;;;;7.50;2.30;;;;;;;17.08;67.65;98911.98;25080;1313;3026651;-69
2022/07/21 05:43:48;;;;;;;7.10;2.70;;;;;;;17.04;67.12;98907.98;25092;1313;3028855;-67
2022/07/21 05:46:18;;;;;;;10.00;3.40;;;;;;;17.03;67.69;98908.41;25096;1313;3026599;-66
2022/07/21 05:48:48;;;;;;;9.50;3.70;;;;;;;16.85;67.62;98908.88;25162;1313;3052849;-64
2022/07/21 05:51:17;;;;;;;7.20;3.20;;;;;;;16.89;67.52;98906.67;25085;1313;3030310;-67
2022/07/21 05:53:46;;;;;;;12.50;4.30;;;;;;;16.82;67.76;98905.96;25120;1312;3051632;-63
2022/07/21 05:56:15;;;;;;;7.60;2.30;;;;;;;16.82;68.22;98898.19;25122;1313;3028698;-67
2022/07/21 05:58:45;;;;;;;7.60;1.90;;;;;;;16.78;67.32;98900.98;25143;1313;3058232;-65
2022/07/21 06:01:16;;;;;;;4.30;1.20;;;;;;;16.86;67.56;98900.45;25109;1312;3026461;-69
2022/07/21 06:03:47;;;;;;;7.90;2.00;;;;;;;17.35;65.09;98897.73;25085;1312;3026557;-68
2022/07/21 06:06:18;;;;;;;4.40;1.70;;;;;;;17.69;64.11;98897.86;25165;1313;3027442;-66
2022/07/21 06:08:50;;;;;;;7.70;2.00;;;;;;;17.67;63.53;98896.02;25177;1311;3071750;-69
2022/07/21 06:11:20;;;;;;;7.40;2.80;;;;;;;17.66;63.19;98899.11;25115;1313;3026509;-63
2022/07/21 06:13:49;;;;;;;10.30;3.50;;;;;;;17.61;63.62;98899.59;25186;1313;3026751;-66
2022/07/21 06:16:18;;;;;;;13.90;6.10;;;;;;;17.65;63.75;98902.56;25073;1313;3030059;-69
2022/07/21 06:18:49;;;;;;;18.40;6.40;;;;;;;17.52;63.63;98901.45;25123;1313;3051476;-64
2022/07/21 06:21:21;;;;;;;12.40;4.80;;;;;;;17.45;64.19;98901.46;25169;1313;3026863;-66
2022/07/21 06:23:51;;;;;;;10.00;4.10;;;;;;;17.62;63.75;98897.73;25071;1313;3026360;-68
2022/07/21 06:26:20;;;;;;;7.20;3.10;;;;;;;17.54;64.04;98900.81;25129;1313;3026643;-70
2022/07/21 06:28:49;;;;;;;9.50;3.20;;;;;;;17.46;64.50;98909.44;25133;1313;3028256;-64
2022/07/21 06:31:20;;;;;;;11.90;2.60;;;;;;;17.43;63.97;98913.36;25098;1313;3051897;-68
2022/07/21 06:33:49;;;;;;;6.70;2.80;;;;;;;17.41;63.47;98904.52;25118;1313;3026960;-69
2022/07/21 06:36:18;;;;;;;7.40;2.90;;;;;;;17.47;62.83;98906.98;25121;1313;3030195;-69
2022/07/21 06:38:47;;;;;;;6.80;2.40;;;;;;;17.54;62.71;98894.11;25157;1313;3052117;-65
2022/07/21 06:41:16;;;;;;;6.70;1.90;;;;;;;17.68;62.85;98897.28;25102;1312;3026323;-66
2022/07/21 06:43:46;;;;;;;7.50;1.20;;;;;;;17.67;61.90;98898.64;25131;1313;3026550;-70
2022/07/21 06:46:15;;;;;;;4.60;1.70;;;;;;;17.67;62.15;98902.89;25184;1313;3054311;-67
2022/07/21 06:48:44;;;;;;;3.70;0.90;;;;;;;17.78;61.69;98897.20;25136;1313;3026445;-69
2022/07/21 06:51:13;;;;;;;2.50;1.20;;;;;;;17.83;60.15;98895.98;25190;1312;3053743;-64
2022/07/21 06:53:43;;;;;;;3.00;1.20;;;;;;;17.87;59.90;98904.65;25125;1313;3029196;-69
2022/07/21 06:56:12;;;;;;;7.40;1.50;;;;;;;17.90;60.44;98903.60;25135;1312;3026341;-72
2022/07/21 06:58:41;;;;;;;3.10;1.10;;;;;;;18.02;60.57;98896.73;25091;1313;3051422;-67
2022/07/21 07:01:13;;;;;;;3.10;1.40;;;;;;;18.13;60.54;98889.10;25137;1312;3027209;-66
2022/07/21 07:03:44;;;;;;;4.40;1.30;;;;;;;18.23;60.28;98893.61;25175;1313;3026625;-65
2022/07/21 07:06:12;;;;;;;6.50;1.40;;;;;;;18.26;60.69;98892.77;25074;1313;3027767;-67
2022/07/21 07:08:43;;;;;;;6.30;1.10;;;;;;;18.28;59.76;98894.84;25122;1312;3053405;-70
2022/07/21 07:11:13;;;;;;;3.60;1.30;;;;;;;18.30;59.63;98886.87;25119;1313;3026066;-67
2022/07/21 07:13:43;;;;;;;8.10;1.50;;;;;;;18.33;60.24;98892.71;25101;1313;3026581;-67
2022/07/21 07:16:13;;;;;;;7.90;1.40;;;;;;;18.43;59.35;98885.55;25131;1313;3029422;-68
2022/07/21 07:18:44;;;;;;;3.50;1.10;;;;;;;18.55;58.60;98884.16;25172;1313;3028631;-65
2022/07/21 07:21:13;;;;;;;3.40;0.90;;;;;;;18.61;57.72;98885.87;25103;1313;3026805;-69
2022/07/21 07:23:42;;;;;;;8.90;1.20;;;;;;;18.77;57.55;98881.66;25098;1313;3054597;-64
2022/07/21 07:26:11;;;;;;;6.40;1.40;;;;;;;18.87;57.07;98882.95;25190;1313;3026844;-66
2022/07/21 07:28:41;;;;;;;3.70;1.60;;;;;;;18.78;55.64;98875.35;25101;1313;3053458;-66
2022/07/21 07:31:10;;;;;;;3.40;1.20;;;;;;;18.91;55.68;98870.33;25083;1313;3026671;-64
2022/07/21 07:33:39;;;;;;;4.50;1.20;;;;;;;19.04;54.63;98878.90;25120;1312;3026375;-65
2022/07/21 07:36:11;;;;;;;5.30;1.50;;;;;;;19.05;52.98;98875.77;25047;1312;3051370;-67
2022/07/21 07:38:41;;;;;;;4.20;1.30;;;;;;;19.06;52.43;98870.67;25090;1313;3027281;-70
2022/07/21 07:41:10;;;;;;;10.70;1.70;;;;;;;19.15;52.25;98870.66;25146;1313;3026894;-67
2022/07/21 07:43:39;;;;;;;4.60;1.10;;;;;;;19.11;51.45;98879.11;25065;1312;3050829;-66
2022/07/21 07:46:10;;;;;;;4.60;1.20;;;;;;;19.21;51.99;98867.55;25165;1312;3026660;-67
2022/07/21 07:48:41;;;;;;;4.60;0.90;;;;;;;19.30;52.10;98871.40;25104;1312;3057479;-67
2022/07/21 07:51:11;;;;;;;6.00;0.90;;;;;;;19.31;51.43;98868.23;25135;1312;3026923;-65
2022/07/21 07:53:40;;;;;;;4.40;0.90;;;;;;;19.44;51.77;98861.86;25166;1312;3026951;-67
2022/07/21 07:56:09;;;;;;;4.60;0.80;;;;;;;19.46;51.54;98876.48;25114;1313;3026543;-69
2022/07/21 07:58:39;;;;;;;4.30;0.90;;;;;;;19.39;51.37;98874.20;25064;1313;3028394;-70
2022/07/21 08:01:09;;;;;;;2.70;0.90;;;;;;;19.40;50.71;98869.48;25130;1312;3029829;-71
2022/07/21 08:03:40;;;;;;;5.30;1.30;;;;;;;19.49;50.48;98873.82;25147;1313;3050567;-64
2022/07/21 08:06:10;;;;;;;7.80;1.30;;;;;;;19.59;50.46;98871.33;25120;1312;3026594;-67
2022/07/21 08:08:39;;;;;;;7.20;0.90;;;;;;;19.75;50.14;98876.73;25126;1312;3028672;-65
2022/07/21 08:11:09;;;;;;;3.50;1.10;;;;;;;19.84;49.90;98870.77;25148;1312;3026201;-66
2022/07/21 08:13:39;;;;;;;8.40;0.80;;;;;;;20.03;49.88;98875.30;25090;1311;3028802;-66
2022/07/21 08:16:08;;;;;;;6.70;1.00;;;;;;;20.08;49.67;98869.71;25095;1312;3026051;-67
2022/07/21 08:18:37;;;;;;;7.20;1.10;;;;;;;20.12;49.37;98861.40;25053;1313;3054341;-62
2022/07/21 08:21:06;;;;;;;7.50;1.20;;;;;;;20.13;49.28;98868.32;25128;1313;3026539;-69
2022/07/21 08:23:36;;;;;;;4.00;0.90;;;;;;;20.20;48.73;98871.73;25148;1313;3026533;-67
2022/07/21 08:26:07;;;;;;;2.30;1.40;;;;;;;20.18;48.08;98864.49;25232;1313;3052169;-68
2022/07/21 08:28:36;;;;;;;4.40;1.00;;;;;;;20.25;48.57;98862.08;25186;1313;3026924;-67
2022/07/21 08:31:06;;;;;;;8.90;1.50;;;;;;;20.46;47.64;98857.80;25125;1313;3026785;-68
2022/07/21 08:33:35;;;;;;;6.30;1.00;;;;;;;20.72;47.31;98854.37;25055;1313;3026360;-74
2022/07/21 08:36:04;;;;;;;3.70;1.30;;;;;;;20.76;47.08;98847.20;25265;1311;3054705;-67
2022/07/21 08:38:33;;;;;;;3.70;1.00;;;;;;;20.79;46.84;98861.79;25123;1313;3026510;-65
2022/07/21 08:41:02;;;;;;;3.20;1.10;;;;;;;20.60;45.99;98846.52;25075;1316;3026562;-73
2022/07/21 08:43:32;;;;;;;4.70;1.20;;;;;;;20.74;46.28;98841.66;25120;1313;3054125;-68
2022/07/21 08:46:02;;;;;;;6.30;1.00;;;;;;;20.84;45.60;98849.58;25062;1316;3026381;-68
2022/07/21 08:48:31;;;;;;;8.00;1.20;;;;;;;20.80;45.19;98851.27;25108;1316;3054045;-70
2022/07/21 08:51:01;;;;;;;5.80;0.80;;;;;;;20.82;44.97;98848.50;25170;1313;3026476;-68
2022/07/21 08:53:30;;;;;;;3.80;0.90;;;;;;;20.72;44.36;98866.42;25072;1315;3026806;-69
2022/07/21 08:55:59;;;;;;;4.10;0.80;;;;;;;20.81;43.97;98850.53;25102;1313;3051395;-64
2022/07/21 08:58:29;;;;;;;3.80;1.20;;;;;;;20.94;44.46;98843.90;25102;1312;3026428;-69
2022/07/21 09:00:58;;;;;;;7.30;1.30;;;;;;;21.26;44.07;98836.09;25111;1313;3049590;-72
2022/07/21 09:03:27;;;;;;;3.90;0.80;;;;;;;21.65;43.71;98835.34;25149;1313;3026898;-68
2022/07/21 09:06:08;;;;;;;1.00;0.60;;;;;;;21.64;43.14;98841.62;25083;1313;3070290;-71
2022/07/21 09:08:39;;;;;;;5.60;0.80;;;;;;;21.63;43.04;98832.36;25144;1313;3051529;-64
2022/07/21 09:11:18;;;;;;;4.50;0.70;;;;;;;21.61;42.87;98842.44;25133;1313;3029358;-70
2022/07/21 09:14:07;;;;;;;4.30;0.80;;;;;;;21.63;43.41;98847.03;25153;1313;3055578;-68
2022/07/21 09:16:43;;;;;;;6.00;0.70;;;;;;;21.52;43.33;98842.27;25081;1313;3059372;-69
2022/07/21 09:19:24;;;;;;;2.50;0.70;;;;;;;21.46;43.47;98841.09;25079;1313;3049980;-67
2022/07/21 09:21:55;;;;;;;3.80;0.90;;;;;;;21.57;43.46;98839.73;25071;1313;3052038;-73
2022/07/21 09:24:28;;;;;;;4.60;0.70;;;;;;;21.50;43.46;98839.39;25119;1313;3026447;-70
2022/07/21 09:26:59;;;;;;;2.60;0.60;;;;;;;21.52;43.51;98845.10;25143;1313;3067950;-70
2022/07/21 09:29:52;;;;;;;1.50;0.70;;;;;;;21.36;43.53;98846.73;25068;1313;3026814;-70
2022/07/21 09:32:32;;;;;;;7.80;0.80;;;;;;;21.39;43.88;98841.55;25120;1313;3053793;-63
2022/07/21 09:35:04;;;;;;;4.70;1.10;;;;;;;21.38;44.12;98838.02;25128;1313;3069578;-64
2022/07/21 09:37:33;;;;;;;6.90;1.00;;;;;;;21.46;43.93;98838.14;25071;1313;3026462;-71
2022/07/21 09:40:07;;;;;;;3.60;1.10;;;;;;;21.83;44.02;98833.47;25136;1312;3026553;-70
2022/07/21 09:42:37;;;;;;;;;;;;;;;22.04;43.57;98830.16;25132;1313;3069705;-67
2022/07/21 09:45:11;;;;;;;3.40;0.90;;;;;;;22.03;43.42;98829.73;25044;1313;3027450;-68
2022/07/21 09:47:40;;;;;;;2.00;1.10;;;;;;;22.07;43.27;98831.66;25120;1313;3051782;-67
2022/07/21 09:50:13;;;;;;;2.60;0.80;;;;;;;22.01;42.94;98832.63;25063;1313;3026964;-70
2022/07/21 09:52:43;;;;;;;6.10;0.80;;;;;;;22.00;43.39;98825.20;25153;1313;3026673;-72
2022/07/21 09:55:15;;;;;;;3.20;0.70;;;;;;;22.24;43.25;98813.50;25163;1313;3026205;-68
2022/07/21 09:57:44;;;;;;;5.60;0.60;;;;;;;22.35;42.96;98824.84;24801;1313;3506384;-68
2022/07/21 10:00:16;;;;;;;6.80;0.80;;;;;;;22.53;43.06;98817.70;25040;1316;3026125;-65
2022/07/21 10:02:46;;;;;;;2.20;0.70;;;;;;;22.38;43.08;98822.55;25056;1313;3027410;-71
2022/07/21 10:05:19;;;;;;;4.10;0.80;;;;;;;22.22;43.44;98828.70;25073;1313;3026109;-65
2022/07/21 10:07:49;;;;;;;3.80;0.70;;;;;;;22.19;43.84;98821.16;25104;1313;3054491;-65
2022/07/21 10:10:18;;;;;;;5.80;0.90;;;;;;;22.11;43.95;98812.52;25067;1313;3026592;-67
2022/07/21 10:12:51;;;;;;;11.60;1.10;;;;;;;22.14;44.19;98809.82;25200;1313;3027307;-70
2022/07/21 10:15:20;;;;;;;7.10;0.90;;;;;;;22.23;44.32;98812.90;25105;1313;3026908;-66
2022/07/21 10:17:51;;;;;;;3.40;0.90;;;;;;;22.48;44.26;98816.16;25086;1313;3054451;-70
2022/07/21 10:20:26;;;;;;;4.40;0.90;;;;;;;22.34;44.61;98817.10;25075;1313;3026655;-69
2022/07/21 10:22:57;;;;;;;2.70;0.70;;;;;;;22.48;44.42;98811.83;25104;1313;3051442;-67
2022/07/21 10:25:29;;;;;;;4.30;0.90;;;;;;;22.67;44.05;98802.73;25220;1313;3026259;-66
2022/07/21 10:28:10;;;;;;;4.30;0.70;;;;;;;22.81;44.24;98801.92;25182;1312;3026673;-72
2022/07/21 10:30:58;;;;;;;5.20;0.70;;;;;;;23.01;43.22;98800.21;25145;1313;3049755;-67
2022/07/21 10:33:45;;;;;;;9.80;0.80;;;;;;;23.17;42.90;98791.73;25121;1313;3055274;-65
2022/07/21 10:36:26;;;;;;;4.50;0.80;;;;;;;23.40;42.52;98792.66;25120;1313;3053759;-67
2022/07/21 10:39:12;;;;;;;3.30;0.70;;;;;;;23.47;42.36;98802.96;25119;1313;3070882;-67
2022/07/21 10:41:46;;;;;;;9.60;1.00;;;;;;;23.29;42.26;98799.73;25133;1313;3051633;-71
2022/07/21 10:44:27;;;;;;;1.90;0.70;;;;;;;23.09;42.53;98806.77;25082;1313;3052401;-70
2022/07/21 10:47:06;;;;;;;7.60;0.90;;;;;;;23.04;43.32;98800.64;25063;1313;3052567;-71
2022/07/21 10:49:54;;;;;;;3.40;0.50;;;;;;;23.10;43.22;98801.42;25247;1313;3058930;-70
2022/07/21 10:52:38;;;;;;;12.40;0.90;;;;;;;23.04;43.04;98811.53;25094;1313;3052246;-71
2022/07/21 10:55:13;;;;;;;5.80;0.70;;;;;;;23.16;42.75;98800.26;25113;1313;3055938;-71
2022/07/21 10:57:43;;;;;;;3.30;0.80;;;;;;;23.29;42.65;98789.71;25104;1313;3053733;-65
2022/07/21 11:00:28;;;;;;;3.00;1.00;;;;;;;23.56;42.24;98789.58;25123;1313;3026402;-68
2022/07/21 11:03:01;;;;;;;1.60;0.70;;;;;;;23.71;41.85;98795.68;25154;1313;3051437;-69
2022/07/21 11:05:32;;;;;;;4.50;0.90;;;;;;;23.56;41.94;98789.23;25156;1313;3026579;-67
2022/07/21 11:08:08;;;;;;;6.80;0.80;;;;;;;23.64;41.99;98788.20;25147;1316;3026140;-70
2022/07/21 11:10:38;;;;;;;4.00;0.80;;;;;;;23.53;42.30;98787.59;25074;1313;3059405;-66
2022/07/21 11:13:07;;;;;;;2.70;0.80;;;;;;;23.75;42.17;98788.04;25062;1313;3026872;-69
2022/07/21 11:15:53;;;;;;;3.10;0.90;;;;;;;23.61;41.86;98795.63;25076;1313;3026979;-64
2022/07/21 11:18:25;;;;;;;5.70;0.70;;;;;;;23.52;41.91;98792.23;25074;1313;3054040;-65
2022/07/21 11:21:01;;;;;;;10.80;0.70;;;;;;;23.88;41.48;98782.48;25093;1312;3026464;-70
2022/07/21 11:23:49;;;;;;;3.70;0.60;;;;;;;23.95;41.64;98790.71;25122;1313;3049477;-68
2022/07/21 11:26:19;;;;;;;4.20;0.70;;;;;;;23.66;42.18;98789.71;25152;1313;3055204;-64
2022/07/21 11:29:04;;;;;;;10.30;0.90;;;;;;;23.58;42.54;98786.58;25061;1310;3026839;-68
2022/07/21 11:31:45;;;;;;;7.10;1.00;;;;;;;23.57;42.76;98788.77;25097;1313;3059250;-69
2022/07/21 11:34:15;;;;;;;3.50;0.80;;;;;;;23.51;42.83;98789.24;25097;1313;3050537;-69